createdAt,value
2022-10-30T00:00:31.016Z,3.50
2022-10-30T00:02:57.811Z,3.23
2022-10-30T00:05:24.579Z,3.50
2022-10-30T00:07:51.059Z,3.53
2022-10-30T00:10:17.558Z,3.77
2022-10-30T00:12:44.058Z,3.37
2022-10-30T00:15:10.583Z,3.80
2022-10-30T00:17:37.138Z,3.17
2022-10-30T00:20:03.651Z,3.00
2022-10-30T00:22:30.175Z,2.33
2022-10-30T00:24:56.681Z,3.00
2022-10-30T00:27:23.186Z,3.00
2022-10-30T00:29:49.694Z,2.30
2022-10-30T00:32:16.203Z,2.60
2022-10-30T00:34:42.746Z,2.30
2022-10-30T00:37:09.253Z,2.80
2022-10-30T00:39:35.754Z,2.87
2022-10-30T00:42:02.287Z,2.50
2022-10-30T00:44:28.767Z,2.40
2022-10-30T00:46:55.274Z,3.00
2022-10-30T00:49:21.816Z,4.73
2022-10-30T00:51:48.328Z,4.17
2022-10-30T00:54:14.835Z,4.47
2022-10-30T00:56:41.376Z,3.50
2022-10-30T00:59:07.886Z,3.17
2022-10-30T01:01:34.505Z,3.10
2022-10-30T01:04:01.102Z,3.07
2022-10-30T01:06:27.630Z,3.20
2022-10-30T01:08:58.757Z,3.00
2022-10-30T01:11:26.768Z,3.10
2022-10-30T01:13:53.321Z,3.00
2022-10-30T01:16:19.830Z,3.30
2022-10-30T01:18:46.339Z,2.90
2022-10-30T01:21:12.850Z,2.43
2022-10-30T01:23:39.348Z,2.50
2022-10-30T01:26:05.871Z,2.90
2022-10-30T01:28:32.383Z,2.90
2022-10-30T01:30:58.892Z,3.00
2022-10-30T01:33:25.403Z,3.00
2022-10-30T01:35:51.946Z,3.43
2022-10-30T01:38:18.427Z,3.00
2022-10-30T01:40:44.943Z,3.57
2022-10-30T01:43:11.474Z,3.00
2022-10-30T01:45:38.016Z,3.00
2022-10-30T01:48:04.485Z,2.80
2022-10-30T01:50:31.005Z,3.03
2022-10-30T01:52:57.792Z,2.80
2022-10-30T01:55:24.519Z,2.67
2022-10-30T01:57:51.051Z,2.30
2022-10-30T02:00:17.590Z,2.90
2022-10-30T02:02:44.215Z,2.77
2022-10-30T02:05:10.810Z,2.77
2022-10-30T02:07:37.322Z,2.43
2022-10-30T02:10:03.826Z,2.10
2022-10-30T02:12:30.371Z,2.60
2022-10-30T02:14:56.839Z,3.23
2022-10-30T02:17:23.342Z,2.77
2022-10-30T02:19:49.906Z,3.17
2022-10-30T02:22:16.425Z,3.57
2022-10-30T02:24:42.972Z,2.70
2022-10-30T02:27:09.511Z,2.90
2022-10-30T02:29:36.011Z,3.10
2022-10-30T02:32:02.513Z,3.30
2022-10-30T02:34:29.023Z,3.37
2022-10-30T02:36:55.531Z,2.87
2022-10-30T02:39:22.123Z,2.70
2022-10-30T02:41:48.632Z,2.33
2022-10-30T02:44:15.140Z,2.07
2022-10-30T02:46:41.684Z,2.43
2022-10-30T02:49:08.195Z,2.40
2022-10-30T02:51:34.696Z,3.20
2022-10-30T02:54:01.188Z,2.30
2022-10-30T02:56:27.655Z,2.27
2022-10-30T02:58:54.191Z,2.63
2022-10-30T03:01:20.808Z,2.10
2022-10-30T03:03:47.417Z,2.43
2022-10-30T03:06:13.921Z,2.30
2022-10-30T03:08:40.434Z,2.43
2022-10-30T03:11:06.982Z,2.53
2022-10-30T03:13:33.494Z,2.30
2022-10-30T03:15:59.994Z,2.37
2022-10-30T03:18:26.525Z,2.03
2022-10-30T03:20:53.069Z,2.50
2022-10-30T03:23:19.534Z,2.83
2022-10-30T03:25:46.052Z,2.80
2022-10-30T03:28:12.574Z,2.90
2022-10-30T03:30:39.100Z,2.30
2022-10-30T03:33:05.602Z,3.20
2022-10-30T03:35:32.107Z,2.23
2022-10-30T03:37:58.658Z,2.73
2022-10-30T03:40:25.159Z,3.17
2022-10-30T03:42:51.625Z,3.63
2022-10-30T03:45:18.173Z,3.30
2022-10-30T03:47:44.698Z,3.67
2022-10-30T03:50:11.214Z,3.63
2022-10-30T03:52:37.738Z,3.27
2022-10-30T03:55:04.243Z,3.10
2022-10-30T03:57:30.769Z,3.13
2022-10-30T03:59:57.289Z,2.33
2022-10-30T04:02:23.771Z,2.50
2022-10-30T04:04:50.316Z,2.80
2022-10-30T04:07:16.845Z,2.83
2022-10-30T04:09:43.383Z,2.40
2022-10-30T04:12:10.055Z,2.10
2022-10-30T04:14:36.519Z,2.40
2022-10-30T04:17:03.055Z,2.47
2022-10-30T04:19:29.634Z,2.57
2022-10-30T04:21:56.172Z,3.53
2022-10-30T04:24:22.679Z,4.00
2022-10-30T04:26:49.189Z,3.50
2022-10-30T04:29:15.726Z,3.63
2022-10-30T04:31:42.239Z,3.60
2022-10-30T04:34:08.795Z,4.43
2022-10-30T04:36:35.262Z,4.00
2022-10-30T04:39:01.740Z,4.17
2022-10-30T04:41:28.273Z,3.87
2022-10-30T04:43:54.739Z,3.93
2022-10-30T04:46:21.253Z,3.50
2022-10-30T04:48:47.790Z,3.80
2022-10-30T04:51:14.291Z,3.30
2022-10-30T04:53:40.794Z,3.30
2022-10-30T04:56:07.331Z,2.43
2022-10-30T04:58:33.841Z,2.03
2022-10-30T05:01:03.014Z,2.20
2022-10-30T05:03:29.997Z,2.17
2022-10-30T05:05:56.507Z,2.43
2022-10-30T05:08:22.969Z,2.70
2022-10-30T05:10:49.515Z,3.27
2022-10-30T05:13:16.026Z,2.63
2022-10-30T05:15:42.528Z,2.50
2022-10-30T05:18:09.077Z,2.50
2022-10-30T05:20:35.586Z,3.07
2022-10-30T05:23:02.095Z,2.70
2022-10-30T05:25:28.651Z,2.60
2022-10-30T05:27:55.392Z,2.60
2022-10-30T05:30:22.118Z,3.10
2022-10-30T05:32:48.733Z,3.23
2022-10-30T05:35:15.253Z,3.60
2022-10-30T05:37:41.834Z,3.90
2022-10-30T05:40:08.359Z,3.47
2022-10-30T05:42:34.862Z,3.13
2022-10-30T05:45:02.498Z,3.10
2022-10-30T05:47:29.255Z,3.43
2022-10-30T05:49:55.768Z,4.20
2022-10-30T05:52:22.293Z,3.67
2022-10-30T05:54:48.848Z,3.33
2022-10-30T05:57:15.449Z,2.90
2022-10-30T05:59:41.954Z,2.33
2022-10-30T06:02:08.527Z,2.20
2022-10-30T06:04:35.121Z,3.60
2022-10-30T06:07:01.631Z,6.40
2022-10-30T06:09:28.161Z,6.13
2022-10-30T06:11:54.643Z,5.33
2022-10-30T06:14:21.142Z,5.93
2022-10-30T06:16:47.671Z,4.80
2022-10-30T06:19:17.546Z,3.90
2022-10-30T06:21:45.511Z,5.73
2022-10-30T06:24:12.013Z,7.47
2022-10-30T06:26:38.489Z,6.60
2022-10-30T06:29:04.983Z,6.70
2022-10-30T06:31:31.490Z,6.37
2022-10-30T06:33:58.010Z,6.13
2022-10-30T06:36:24.515Z,3.37
2022-10-30T06:38:51.088Z,3.47
2022-10-30T06:41:17.568Z,3.50
2022-10-30T06:43:44.094Z,3.50
2022-10-30T06:46:10.603Z,3.87
2022-10-30T06:48:37.102Z,3.33
2022-10-30T06:51:03.608Z,3.27
2022-10-30T06:53:30.115Z,3.30
2022-10-30T06:55:58.980Z,3.43
2022-10-30T06:58:25.652Z,4.00
2022-10-30T07:00:52.566Z,3.60
2022-10-30T07:03:19.115Z,3.67
2022-10-30T07:05:45.887Z,5.03
2022-10-30T07:08:12.515Z,3.03
2022-10-30T07:10:39.067Z,2.90
2022-10-30T07:13:05.592Z,2.87
2022-10-30T07:15:32.146Z,2.93
2022-10-30T07:17:58.993Z,4.30
2022-10-30T07:20:25.822Z,4.40
2022-10-30T07:22:52.332Z,3.63
2022-10-30T07:25:18.860Z,3.07
2022-10-30T07:27:45.383Z,3.40
2022-10-30T07:30:11.917Z,3.60
2022-10-30T07:32:38.467Z,2.93
2022-10-30T07:35:04.991Z,2.93
2022-10-30T07:37:31.541Z,3.07
2022-10-30T07:39:58.072Z,2.47
2022-10-30T07:42:24.587Z,2.53
2022-10-30T07:44:51.125Z,2.60
2022-10-30T07:47:17.640Z,3.00
2022-10-30T07:49:44.160Z,2.77
2022-10-30T07:52:16.218Z,2.80
2022-10-30T07:54:43.986Z,2.90
2022-10-30T07:57:10.499Z,3.50
2022-10-30T07:59:37.078Z,3.67
2022-10-30T08:02:03.783Z,3.47
2022-10-30T08:04:30.385Z,3.50
2022-10-30T08:06:56.935Z,3.07
2022-10-30T08:09:23.458Z,2.97
2022-10-30T08:11:49.991Z,3.80
2022-10-30T08:14:16.463Z,3.90
2022-10-30T08:16:43.033Z,3.90
2022-10-30T08:19:09.612Z,3.73
2022-10-30T08:21:36.135Z,3.97
2022-10-30T08:24:02.645Z,3.87
2022-10-30T08:26:29.184Z,4.60
2022-10-30T08:28:55.714Z,3.83
2022-10-30T08:31:22.251Z,4.57
2022-10-30T08:33:48.773Z,4.27
2022-10-30T08:36:15.966Z,3.90
2022-10-30T08:38:42.554Z,4.07
2022-10-30T08:41:09.237Z,3.97
2022-10-30T08:43:35.755Z,3.60
2022-10-30T08:46:02.283Z,3.60
2022-10-30T08:48:28.796Z,3.70
2022-10-30T08:50:55.346Z,3.83
2022-10-30T08:53:21.856Z,3.67
2022-10-30T08:55:48.437Z,3.93
2022-10-30T08:58:15.020Z,3.70
2022-10-30T09:00:41.490Z,3.53
2022-10-30T09:03:08.033Z,3.87
2022-10-30T09:05:34.551Z,3.90
2022-10-30T09:08:01.705Z,3.97
2022-10-30T09:10:28.764Z,3.90
2022-10-30T09:12:55.289Z,3.73
2022-10-30T09:15:21.790Z,4.23
2022-10-30T09:17:48.324Z,4.00
2022-10-30T09:20:14.858Z,3.83
2022-10-30T09:22:41.383Z,3.97
2022-10-30T09:25:07.979Z,3.80
2022-10-30T09:27:34.488Z,3.43
2022-10-30T09:30:01.014Z,4.33
2022-10-30T09:32:27.551Z,4.23
2022-10-30T09:34:54.051Z,4.40
2022-10-30T09:37:20.586Z,3.90
2022-10-30T09:39:47.276Z,3.53
2022-10-30T09:42:13.791Z,4.50
2022-10-30T09:44:40.311Z,3.87
2022-10-30T09:47:06.864Z,4.17
2022-10-30T09:49:33.992Z,4.07
2022-10-30T09:52:00.511Z,3.60
2022-10-30T09:54:27.055Z,3.70
2022-10-30T09:56:56.680Z,4.63
2022-10-30T09:59:25.876Z,3.27
2022-10-30T10:01:52.478Z,4.00
2022-10-30T10:04:22.289Z,4.03
2022-10-30T10:06:52.125Z,3.90
2022-10-30T10:09:18.661Z,3.70
2022-10-30T10:11:45.138Z,3.70
2022-10-30T10:14:11.663Z,3.50
2022-10-30T10:16:38.180Z,3.57
2022-10-30T10:19:04.737Z,3.90
2022-10-30T10:21:31.257Z,3.73
2022-10-30T10:23:57.774Z,3.43
2022-10-30T10:26:24.512Z,3.17
2022-10-30T10:28:51.056Z,3.87
2022-10-30T10:31:17.570Z,3.63
2022-10-30T10:33:44.124Z,3.17
2022-10-30T10:36:10.680Z,3.27
2022-10-30T10:38:37.244Z,2.77
2022-10-30T10:41:03.762Z,3.03
2022-10-30T10:43:30.289Z,2.77
2022-10-30T10:45:56.791Z,2.70
2022-10-30T10:48:23.296Z,2.43
2022-10-30T10:50:49.815Z,2.83
2022-10-30T10:53:16.378Z,2.60
2022-10-30T10:55:42.891Z,3.00
2022-10-30T10:58:09.402Z,2.67
2022-10-30T11:00:35.965Z,2.73
2022-10-30T11:03:02.875Z,2.77
2022-10-30T11:05:29.787Z,2.97
2022-10-30T11:07:56.621Z,2.50
2022-10-30T11:10:23.286Z,2.30
2022-10-30T11:12:49.835Z,3.00
2022-10-30T11:15:16.405Z,2.83
2022-10-30T11:17:42.921Z,2.87
2022-10-30T11:20:09.473Z,2.67
2022-10-30T11:22:35.994Z,2.63
2022-10-30T11:25:02.554Z,2.50
2022-10-30T11:27:29.070Z,2.53
2022-10-30T11:29:55.585Z,2.80
2022-10-30T11:32:22.140Z,2.80
2022-10-30T11:34:48.644Z,2.70
2022-10-30T11:37:15.157Z,2.80
2022-10-30T11:39:41.623Z,2.87
2022-10-30T11:42:08.171Z,2.33
2022-10-30T11:44:34.691Z,2.30
2022-10-30T11:47:01.230Z,2.30
2022-10-30T11:49:27.789Z,2.90
2022-10-30T11:51:54.313Z,2.50
2022-10-30T11:54:20.802Z,2.70
2022-10-30T11:56:47.340Z,2.33
2022-10-30T11:59:13.865Z,2.67
2022-10-30T12:01:40.449Z,2.60
2022-10-30T12:04:06.953Z,2.87
2022-10-30T12:06:33.468Z,2.27
2022-10-30T12:09:00.016Z,2.60
2022-10-30T12:11:26.545Z,2.17
2022-10-30T12:13:53.089Z,2.67
2022-10-30T12:16:19.601Z,2.60
2022-10-30T12:18:46.111Z,3.10
2022-10-30T12:21:12.668Z,3.10
2022-10-30T12:23:39.190Z,3.07
2022-10-30T12:26:05.712Z,3.03
2022-10-30T12:28:32.410Z,2.43
2022-10-30T12:30:58.935Z,3.00
2022-10-30T12:33:25.451Z,2.33
2022-10-30T12:35:51.992Z,2.43
2022-10-30T12:38:18.471Z,2.80
2022-10-30T12:40:44.975Z,3.77
2022-10-30T12:43:11.528Z,3.10
2022-10-30T12:45:38.091Z,2.60
2022-10-30T12:48:04.608Z,2.83
2022-10-30T12:50:31.117Z,2.90
2022-10-30T12:52:58.017Z,3.20
2022-10-30T12:55:24.723Z,2.90
2022-10-30T12:57:51.364Z,2.57
2022-10-30T13:00:17.916Z,3.13
2022-10-30T13:02:44.444Z,2.87
2022-10-30T13:05:10.983Z,2.87
2022-10-30T13:07:37.522Z,3.17
2022-10-30T13:10:04.035Z,3.13
2022-10-30T13:12:30.561Z,3.17
2022-10-30T13:14:57.144Z,3.00
2022-10-30T13:17:23.676Z,3.20
2022-10-30T13:19:50.187Z,2.93
2022-10-30T13:22:16.735Z,2.77
2022-10-30T13:24:43.261Z,3.10
2022-10-30T13:27:09.786Z,2.83
2022-10-30T13:29:36.329Z,2.90
2022-10-30T13:32:02.886Z,2.73
2022-10-30T13:34:29.418Z,2.77
2022-10-30T13:36:55.947Z,2.73
2022-10-30T13:39:22.497Z,2.27
2022-10-30T13:41:49.007Z,2.70
2022-10-30T13:44:15.531Z,2.43
2022-10-30T13:46:42.048Z,2.80
2022-10-30T13:49:08.559Z,2.70
2022-10-30T13:51:35.121Z,2.90
2022-10-30T13:54:01.662Z,2.40
2022-10-30T13:56:28.193Z,2.60
2022-10-30T13:58:54.753Z,2.60
2022-10-30T14:01:21.444Z,2.87
2022-10-30T14:03:48.019Z,2.60
2022-10-30T14:06:14.579Z,2.60
2022-10-30T14:08:41.106Z,2.67
2022-10-30T14:11:07.638Z,2.50
2022-10-30T14:13:34.197Z,2.30
2022-10-30T14:16:00.721Z,2.53
2022-10-30T14:18:27.231Z,3.07
2022-10-30T14:20:53.771Z,2.50
2022-10-30T14:23:20.291Z,2.23
2022-10-30T14:25:46.828Z,2.60
2022-10-30T14:28:13.688Z,2.40
2022-10-30T14:30:40.335Z,2.50
2022-10-30T14:33:06.861Z,2.67
2022-10-30T14:35:33.487Z,2.23
2022-10-30T14:38:00.316Z,2.97
2022-10-30T14:40:27.033Z,3.10
2022-10-30T14:42:53.571Z,3.13
2022-10-30T14:45:20.063Z,2.53
2022-10-30T14:47:46.585Z,2.80
2022-10-30T14:50:13.141Z,2.77
2022-10-30T14:52:39.681Z,2.90
2022-10-30T14:55:06.246Z,2.70
2022-10-30T14:57:32.766Z,3.03
2022-10-30T14:59:59.256Z,3.10
2022-10-30T15:02:25.937Z,3.27
2022-10-30T15:04:52.524Z,2.93
2022-10-30T15:07:19.035Z,2.87
2022-10-30T15:09:45.574Z,3.03
2022-10-30T15:12:12.087Z,3.20
2022-10-30T15:14:52.621Z,3.00
2022-10-30T15:17:20.275Z,3.23
2022-10-30T15:19:46.796Z,2.50
2022-10-30T15:22:13.336Z,3.10
2022-10-30T15:24:39.905Z,3.20
2022-10-30T15:27:06.425Z,3.20
2022-10-30T15:29:32.947Z,3.07
2022-10-30T15:31:59.508Z,2.77
2022-10-30T15:34:26.033Z,2.77
2022-10-30T15:36:52.519Z,3.40
2022-10-30T15:39:19.076Z,2.60
2022-10-30T15:41:45.552Z,3.87
2022-10-30T15:44:12.145Z,3.20
2022-10-30T15:46:38.719Z,3.40
2022-10-30T15:49:05.237Z,2.97
2022-10-30T15:51:31.758Z,3.20
2022-10-30T15:53:58.256Z,3.80
2022-10-30T15:56:24.780Z,3.70
2022-10-30T15:58:51.308Z,3.50
2022-10-30T16:01:17.938Z,3.30
2022-10-30T16:03:48.285Z,3.67
2022-10-30T16:06:15.059Z,5.10
2022-10-30T16:08:41.600Z,7.07
2022-10-30T16:11:08.084Z,9.00
2022-10-30T16:13:34.616Z,12.60
2022-10-30T16:16:01.110Z,11.00
2022-10-30T16:18:27.615Z,13.40
2022-10-30T16:20:54.141Z,16.03
2022-10-30T16:23:20.679Z,12.00
2022-10-30T16:25:47.619Z,14.47
2022-10-30T16:28:14.220Z,13.00
2022-10-30T16:30:40.735Z,10.37
2022-10-30T16:33:07.332Z,7.40
2022-10-30T16:35:33.972Z,6.20
2022-10-30T16:38:00.579Z,10.83
2022-10-30T16:40:27.195Z,14.50
2022-10-30T16:42:53.809Z,32.87
2022-10-30T16:45:20.330Z,21.90
2022-10-30T16:47:46.804Z,14.43
2022-10-30T16:50:13.310Z,11.13
2022-10-30T16:52:39.872Z,6.20
2022-10-30T16:55:06.393Z,4.60
2022-10-30T16:57:32.917Z,5.90
2022-10-30T16:59:59.463Z,4.53
2022-10-30T17:02:26.033Z,5.40
2022-10-30T17:04:55.529Z,6.90
2022-10-30T17:07:24.618Z,6.30
2022-10-30T17:09:51.135Z,5.43
2022-10-30T17:12:17.660Z,5.60
2022-10-30T17:14:44.148Z,9.07
2022-10-30T17:17:10.649Z,9.20
2022-10-30T17:19:37.293Z,7.93
2022-10-30T17:22:03.782Z,8.07
2022-10-30T17:24:30.314Z,5.60
2022-10-30T17:26:56.862Z,5.57
2022-10-30T17:29:23.357Z,4.80
2022-10-30T17:31:49.853Z,5.20
2022-10-30T17:34:16.346Z,6.63
2022-10-30T17:36:42.861Z,6.97
2022-10-30T17:39:09.392Z,8.03
2022-10-30T17:41:35.929Z,10.43
2022-10-30T17:44:02.466Z,13.90
2022-10-30T17:46:28.982Z,9.30
2022-10-30T17:48:55.454Z,9.77
2022-10-30T17:51:23.947Z,9.17
2022-10-30T17:53:50.468Z,7.57
2022-10-30T17:56:16.988Z,8.43
2022-10-30T17:58:43.551Z,8.83
2022-10-30T18:01:10.136Z,9.67
2022-10-30T18:03:36.725Z,10.87
2022-10-30T18:06:03.253Z,9.00
2022-10-30T18:08:29.845Z,8.20
2022-10-30T18:10:56.320Z,5.17
2022-10-30T18:13:22.835Z,4.90
2022-10-30T18:15:49.363Z,4.40
2022-10-30T18:18:15.909Z,7.33
2022-10-30T18:20:42.421Z,4.80
2022-10-30T18:23:12.792Z,4.77
2022-10-30T18:25:46.953Z,4.43
2022-10-30T18:28:13.474Z,5.10
2022-10-30T18:30:39.951Z,4.80
2022-10-30T18:33:06.503Z,5.10
2022-10-30T18:35:33.021Z,6.40
2022-10-30T18:37:59.577Z,6.73
2022-10-30T18:40:26.096Z,7.53
2022-10-30T18:42:52.668Z,6.70
2022-10-30T18:45:19.367Z,6.30
2022-10-30T18:47:45.908Z,6.30
2022-10-30T18:50:12.473Z,6.50
2022-10-30T18:52:39.001Z,34.97
2022-10-30T18:55:05.647Z,16.67
2022-10-30T18:57:32.255Z,5.07
2022-10-30T18:59:58.828Z,6.43
2022-10-30T19:02:25.583Z,6.17
2022-10-30T19:04:52.225Z,6.40
2022-10-30T19:07:18.759Z,5.63
2022-10-30T19:09:45.264Z,5.37
2022-10-30T19:12:11.781Z,5.17
2022-10-30T19:14:38.382Z,4.77
2022-10-30T19:17:04.930Z,4.67
2022-10-30T19:19:31.421Z,8.97
2022-10-30T19:21:57.924Z,16.57
2022-10-30T19:24:24.575Z,14.53
2022-10-30T19:26:51.083Z,15.10
2022-10-30T19:29:17.685Z,19.47
2022-10-30T19:31:44.254Z,16.27
2022-10-30T19:34:10.780Z,16.93
2022-10-30T19:36:37.324Z,13.87
2022-10-30T19:39:08.871Z,11.37
2022-10-30T19:41:35.611Z,10.93
2022-10-30T19:44:02.153Z,10.00
2022-10-30T19:46:28.662Z,8.20
2022-10-30T19:48:58.050Z,7.67
2022-10-30T19:51:24.925Z,5.97
2022-10-30T19:53:51.435Z,5.30
2022-10-30T19:56:17.983Z,4.60
2022-10-30T19:58:44.504Z,5.33
2022-10-30T20:01:11.070Z,4.93
2022-10-30T20:03:37.663Z,4.13
2022-10-30T20:06:04.175Z,4.80
2022-10-30T20:08:30.697Z,4.80
2022-10-30T20:10:57.249Z,5.23
2022-10-30T20:13:23.779Z,4.60
2022-10-30T20:15:50.329Z,3.80
2022-10-30T20:18:16.852Z,3.53
2022-10-30T20:20:43.362Z,3.80
2022-10-30T20:23:09.887Z,4.10
2022-10-30T20:25:36.400Z,4.57
2022-10-30T20:28:06.648Z,4.30
2022-10-30T20:30:33.767Z,5.80
2022-10-30T20:33:00.707Z,5.00
2022-10-30T20:35:27.382Z,5.07
2022-10-30T20:37:53.931Z,5.50
2022-10-30T20:40:20.457Z,4.57
2022-10-30T20:45:18.416Z,3.73
2022-10-30T20:47:44.927Z,4.23
2022-10-30T20:50:11.441Z,4.70
2022-10-30T20:52:37.978Z,4.10
2022-10-30T20:55:04.503Z,4.70
2022-10-30T20:57:31.114Z,4.00
2022-10-30T20:59:57.671Z,4.33
2022-10-30T21:02:24.239Z,5.80
2022-10-30T21:04:50.827Z,6.10
2022-10-30T21:07:17.352Z,5.67
2022-10-30T21:09:43.877Z,6.40
2022-10-30T21:12:10.369Z,6.03
2022-10-30T21:14:36.874Z,5.87
2022-10-30T21:17:03.425Z,5.23
2022-10-30T21:19:29.956Z,5.60
2022-10-30T21:21:56.484Z,5.40
2022-10-30T21:24:23.059Z,4.87
2022-10-30T21:26:49.580Z,4.77
2022-10-30T21:29:16.101Z,4.60
2022-10-30T21:31:42.739Z,4.77
2022-10-30T21:34:09.206Z,4.83
2022-10-30T21:36:35.714Z,4.80
2022-10-30T21:39:02.216Z,4.37
2022-10-30T21:41:28.727Z,5.33
2022-10-30T21:43:55.259Z,5.00
2022-10-30T21:46:21.804Z,5.63
2022-10-30T21:48:48.279Z,6.00
2022-10-30T21:51:14.794Z,5.67
2022-10-30T21:53:41.343Z,6.00
2022-10-30T21:56:07.836Z,5.53
2022-10-30T21:58:34.364Z,4.67
2022-10-30T22:01:00.920Z,4.73
2022-10-30T22:03:27.424Z,4.37
2022-10-30T22:05:54.088Z,4.70
2022-10-30T22:08:20.649Z,4.60
2022-10-30T22:10:47.180Z,4.50
2022-10-30T22:13:13.660Z,4.20
2022-10-30T22:15:40.233Z,4.40
2022-10-30T22:18:06.752Z,5.07
2022-10-30T22:20:33.210Z,4.10
2022-10-30T22:22:59.723Z,4.10
2022-10-30T22:25:26.235Z,4.30
2022-10-30T22:27:52.752Z,3.30
2022-10-30T22:30:19.256Z,3.60
2022-10-30T22:32:45.784Z,3.50
2022-10-30T22:35:12.262Z,3.70
2022-10-30T22:37:38.775Z,3.70
2022-10-30T22:40:05.290Z,3.83
2022-10-30T22:42:31.808Z,3.50
2022-10-30T22:44:58.368Z,4.03
2022-10-30T22:47:24.874Z,3.20
2022-10-30T22:49:51.348Z,3.77
2022-10-30T22:52:17.886Z,2.50
2022-10-30T22:54:44.407Z,3.00
2022-10-30T22:57:10.928Z,3.40
2022-10-30T22:59:37.462Z,3.50
2022-10-30T23:02:04.078Z,4.33
2022-10-30T23:04:30.602Z,4.30
2022-10-30T23:06:57.125Z,3.53
2022-10-30T23:09:23.628Z,3.83
2022-10-30T23:11:50.118Z,3.97
2022-10-30T23:14:16.632Z,3.90
2022-10-30T23:16:43.159Z,4.53
2022-10-30T23:19:09.713Z,4.77
2022-10-30T23:21:36.237Z,4.50
2022-10-30T23:24:02.752Z,3.40
2022-10-30T23:26:29.230Z,3.83
2022-10-30T23:28:55.693Z,3.80
2022-10-30T23:31:22.410Z,3.50
2022-10-30T23:33:48.953Z,3.30
2022-10-30T23:36:15.441Z,3.30
2022-10-30T23:38:42.000Z,3.30
2022-10-30T23:41:08.538Z,3.53
2022-10-30T23:43:35.084Z,3.53
2022-10-30T23:46:01.633Z,3.20
2022-10-30T23:48:28.147Z,3.17
2022-10-30T23:50:54.643Z,2.67
2022-10-30T23:53:21.160Z,2.40
2022-10-30T23:55:47.704Z,2.57
2022-10-30T23:58:14.224Z,2.73
